sensor_id;sensor_type;location;lat;lon;timestamp;pressure;altitude;pressure_sealevel;temperature;humidity
17438;BME280;73152;52.198;5.422;2024-01-15T00:00:09;100109.16;;;20.63;39.54
17438;BME280;73152;52.198;5.422;2024-01-15T00:02:38;100104.38;;;20.65;39.71
17438;BME280;73152;52.198;5.422;2024-01-15T00:05:07;100106.47;;;20.63;39.46
17438;BME280;73152;52.198;5.422;2024-01-15T00:07:36;100100.28;;;20.63;39.66
17438;BME280;73152;52.198;5.422;2024-01-15T00:10:06;100096.94;;;20.61;39.88
17438;BME280;73152;52.198;5.422;2024-01-15T00:12:37;100090.75;;;20.60;39.47
17438;BME280;73152;52.198;5.422;2024-01-15T00:15:07;100094.25;;;20.61;39.38
17438;BME280;73152;52.198;5.422;2024-01-15T00:17:36;100090.75;;;20.60;39.68
17438;BME280;73152;52.198;5.422;2024-01-15T00:20:07;100088.25;;;20.59;39.62
17438;BME280;73152;52.198;5.422;2024-01-15T00:22:36;100082.03;;;20.58;39.48
17438;BME280;73152;52.198;5.422;2024-01-15T00:25:05;100088.25;;;20.59;39.40
17438;BME280;73152;52.198;5.422;2024-01-15T00:27:36;100082.03;;;20.58;39.47
17438;BME280;73152;52.198;5.422;2024-01-15T00:30:07;100087.66;;;20.57;39.56
17438;BME280;73152;52.198;5.422;2024-01-15T00:32:36;100078.75;;;20.56;39.52
17438;BME280;73152;52.198;5.422;2024-01-15T00:35:05;100080.81;;;20.54;39.53
17438;BME280;73152;52.198;5.422;2024-01-15T00:37:34;100072.75;;;20.54;39.47
17438;BME280;73152;52.198;5.422;2024-01-15T00:40:05;100071.13;;;20.53;39.85
17438;BME280;73152;52.198;5.422;2024-01-15T00:42:37;100068.41;;;20.53;39.48
17438;BME280;73152;52.198;5.422;2024-01-15T00:45:06;100063.03;;;20.53;39.80
17438;BME280;73152;52.198;5.422;2024-01-15T00:47:35;100059.09;;;20.49;39.58
17438;BME280;73152;52.198;5.422;2024-01-15T00:50:06;100058.91;;;20.51;39.69
17438;BME280;73152;52.198;5.422;2024-01-15T00:52:34;100059.69;;;20.51;39.72
17438;BME280;73152;52.198;5.422;2024-01-15T00:55:05;100061.78;;;20.49;39.46
17438;BME280;73152;52.198;5.422;2024-01-15T00:57:37;100059.94;;;20.50;39.71
17438;BME280;73152;52.198;5.422;2024-01-15T01:00:07;100053.72;;;20.49;39.50
17438;BME280;73152;52.198;5.422;2024-01-15T01:02:36;100046.09;;;20.46;39.52
17438;BME280;73152;52.198;5.422;2024-01-15T01:05:05;100051.03;;;20.49;39.49
17438;BME280;73152;52.198;5.422;2024-01-15T01:07:34;100049.38;;;20.48;39.69
17438;BME280;73152;52.198;5.422;2024-01-15T01:10:05;100043.38;;;20.46;39.81
17438;BME280;73152;52.198;5.422;2024-01-15T01:12:33;100049.56;;;20.47;39.52
17438;BME280;73152;52.198;5.422;2024-01-15T01:15:06;100053.09;;;20.47;39.40
17438;BME280;73152;52.198;5.422;2024-01-15T01:17:35;100049.56;;;20.47;39.09
17438;BME280;73152;52.198;5.422;2024-01-15T01:20:06;100051.03;;;20.49;37.14
17438;BME280;73152;52.198;5.422;2024-01-15T01:22:36;100033.66;;;20.45;37.35
17438;BME280;73152;52.198;5.422;2024-01-15T01:25:06;100046.47;;;20.50;36.55
17438;BME280;73152;52.198;5.422;2024-01-15T01:27:36;100046.88;;;20.47;36.63
17438;BME280;73152;52.198;5.422;2024-01-15T01:30:09;100041.56;;;20.34;37.86
17438;BME280;73152;52.198;5.422;2024-01-15T01:32:38;100046.09;;;20.33;38.36
17438;BME280;73152;52.198;5.422;2024-01-15T01:35:07;100042.81;;;20.31;39.15
17438;BME280;73152;52.198;5.422;2024-01-15T01:37:35;100038.25;;;20.32;39.32
17438;BME280;73152;52.198;5.422;2024-01-15T01:40:06;100033.09;;;20.30;39.30
17438;BME280;73152;52.198;5.422;2024-01-15T01:42:36;100042.81;;;20.31;39.69
17438;BME280;73152;52.198;5.422;2024-01-15T01:45:09;100030.41;;;20.30;39.31
17438;BME280;73152;52.198;5.422;2024-01-15T01:47:38;100034.94;;;20.30;39.67
17438;BME280;73152;52.198;5.422;2024-01-15T01:50:08;100036.59;;;20.31;39.41
17438;BME280;73152;52.198;5.422;2024-01-15T01:52:37;100031.44;;;20.29;39.80
17438;BME280;73152;52.198;5.422;2024-01-15T01:55:09;100041.16;;;20.30;39.62
17438;BME280;73152;52.198;5.422;2024-01-15T01:57:41;100041.16;;;20.30;39.69
17438;BME280;73152;52.198;5.422;2024-01-15T02:00:14;100044.88;;;20.29;39.44
17438;BME280;73152;52.198;5.422;2024-01-15T02:02:43;100064.34;;;20.31;39.52
17438;BME280;73152;52.198;5.422;2024-01-15T02:05:14;100074.69;;;20.34;37.64
17438;BME280;73152;52.198;5.422;2024-01-15T02:07:44;100085.00;;;20.44;36.97
17438;BME280;73152;52.198;5.422;2024-01-15T02:10:14;100062.25;;;20.33;36.55
17438;BME280;73152;52.198;5.422;2024-01-15T02:12:43;100054.84;;;20.22;38.04
17438;BME280;73152;52.198;5.422;2024-01-15T02:15:16;100057.91;;;20.19;38.18
17438;BME280;73152;52.198;5.422;2024-01-15T02:17:59;100056.03;;;20.20;37.78
17438;BME280;73152;52.198;5.422;2024-01-15T02:20:28;100045.69;;;20.17;39.16
17438;BME280;73152;52.198;5.422;2024-01-15T02:23:21;100044.44;;;20.19;39.27
17438;BME280;73152;52.198;5.422;2024-01-15T02:25:49;100033.50;;;20.21;38.96
17438;BME280;73152;52.198;5.422;2024-01-15T02:28:22;100034.31;;;20.21;38.43
17438;BME280;73152;52.198;5.422;2024-01-15T02:30:51;100036.00;;;20.22;38.92
17438;BME280;73152;52.198;5.422;2024-01-15T02:33:20;100032.06;;;20.18;39.46
17438;BME280;73152;52.198;5.422;2024-01-15T02:35:48;100038.28;;;20.19;39.24
17438;BME280;73152;52.198;5.422;2024-01-15T02:38:17;100033.69;;;20.19;39.33
17438;BME280;73152;52.198;5.422;2024-01-15T02:40:50;100029.97;;;20.20;39.15
17438;BME280;73152;52.198;5.422;2024-01-15T02:43:19;100029.97;;;20.20;39.39
17438;BME280;73152;52.198;5.422;2024-01-15T02:45:48;100026.69;;;20.18;39.05
17438;BME280;73152;52.198;5.422;2024-01-15T02:48:17;100035.34;;;20.20;38.65
17438;BME280;73152;52.198;5.422;2024-01-15T02:50:46;100028.31;;;20.19;38.95
17438;BME280;73152;52.198;5.422;2024-01-15T02:53:14;100030.19;;;20.19;39.05
17438;BME280;73152;52.198;5.422;2024-01-15T02:55:43;100030.19;;;20.19;39.22
17438;BME280;73152;52.198;5.422;2024-01-15T02:58:15;100033.06;;;20.17;39.29
17438;BME280;73152;52.198;5.422;2024-01-15T03:00:43;100033.91;;;20.18;39.29
17438;BME280;73152;52.198;5.422;2024-01-15T03:03:13;100031.44;;;20.16;39.63
17438;BME280;73152;52.198;5.422;2024-01-15T03:05:41;100032.06;;;20.18;39.23
17438;BME280;73152;52.198;5.422;2024-01-15T03:08:10;100036.59;;;20.18;38.84
17438;BME280;73152;52.198;5.422;2024-01-15T03:10:39;100029.38;;;20.18;38.99
17438;BME280;73152;52.198;5.422;2024-01-15T03:13:08;100026.22;;;20.21;37.96
17438;BME280;73152;52.198;5.422;2024-01-15T03:15:39;100033.69;;;20.19;38.30
17438;BME280;73152;52.198;5.422;2024-01-15T03:18:08;100042.81;;;20.18;38.52
17438;BME280;73152;52.198;5.422;2024-01-15T03:20:37;100052.97;;;20.16;39.06
17438;BME280;73152;52.198;5.422;2024-01-15T03:23:06;100050.88;;;20.18;39.36
17438;BME280;73152;52.198;5.422;2024-01-15T03:25:35;100048.22;;;20.25;36.94
17438;BME280;73152;52.198;5.422;2024-01-15T03:28:04;100054.84;;;20.22;36.07
17438;BME280;73152;52.198;5.422;2024-01-15T03:30:33;100063.31;;;20.06;36.70
17438;BME280;73152;52.198;5.422;2024-01-15T03:33:05;100055.69;;;19.96;36.86
17438;BME280;73152;52.198;5.422;2024-01-15T03:35:34;100061.69;;;19.92;36.89
17438;BME280;73152;52.198;5.422;2024-01-15T03:38:03;100059.00;;;19.85;36.86
17438;BME280;73152;52.198;5.422;2024-01-15T03:40:32;100060.66;;;19.80;37.76
17438;BME280;73152;52.198;5.422;2024-01-15T03:43:01;100040.38;;;19.77;36.92
17438;BME280;73152;52.198;5.422;2024-01-15T03:45:30;100030.03;;;19.68;37.14
17438;BME280;73152;52.198;5.422;2024-01-15T03:47:58;100001.94;;;19.64;39.22
17438;BME280;73152;52.198;5.422;2024-01-15T03:50:30;99999.47;;;19.69;39.48
17438;BME280;73152;52.198;5.422;2024-01-15T03:52:59;99995.91;;;19.75;39.23
17438;BME280;73152;52.198;5.422;2024-01-15T03:55:27;99987.03;;;19.81;39.35
17438;BME280;73152;52.198;5.422;2024-01-15T03:57:56;99987.25;;;19.86;38.86
17438;BME280;73152;52.198;5.422;2024-01-15T04:00:25;99988.47;;;19.90;38.62
17438;BME280;73152;52.198;5.422;2024-01-15T04:02:54;99986.59;;;19.90;39.20
17438;BME280;73152;52.198;5.422;2024-01-15T04:05:23;99983.47;;;19.93;39.35
17438;BME280;73152;52.198;5.422;2024-01-15T04:07:54;99984.31;;;19.94;39.02
17438;BME280;73152;52.198;5.422;2024-01-15T04:10:23;99981.22;;;19.97;38.73
17438;BME280;73152;52.198;5.422;2024-01-15T04:12:52;99988.22;;;19.98;39.01
17438;BME280;73152;52.198;5.422;2024-01-15T04:15:20;99977.47;;;19.98;39.34
17438;BME280;73152;52.198;5.422;2024-01-15T04:17:49;99974.59;;;19.99;39.07
17438;BME280;73152;52.198;5.422;2024-01-15T04:20:18;99972.91;;;19.98;39.30
17438;BME280;73152;52.198;5.422;2024-01-15T04:22:47;99970.03;;;20.00;39.10
17438;BME280;73152;52.198;5.422;2024-01-15T04:25:18;99970.03;;;20.00;39.00
17438;BME280;73152;52.198;5.422;2024-01-15T04:27:47;99959.91;;;20.02;39.03
17438;BME280;73152;52.198;5.422;2024-01-15T04:30:16;99967.50;;;20.05;38.51
17438;BME280;73152;52.198;5.422;2024-01-15T04:32:45;99962.59;;;20.02;38.92
17438;BME280;73152;52.198;5.422;2024-01-15T04:35:14;99957.19;;;20.02;38.65
17438;BME280;73152;52.198;5.422;2024-01-15T04:37:43;99961.75;;;20.01;38.98
17438;BME280;73152;52.198;5.422;2024-01-15T04:40:12;99952.03;;;20.07;37.84
17438;BME280;73152;52.198;5.422;2024-01-15T04:42:44;99955.72;;;20.06;38.15
17438;BME280;73152;52.198;5.422;2024-01-15T04:45:13;99957.63;;;19.99;38.91
17438;BME280;73152;52.198;5.422;2024-01-15T04:47:44;99947.69;;;19.99;38.71
17438;BME280;73152;52.198;5.422;2024-01-15T04:50:13;99948.94;;;19.97;38.87
17438;BME280;73152;52.198;5.422;2024-01-15T04:52:42;99953.25;;;19.98;38.41
17438;BME280;73152;52.198;5.422;2024-01-15T04:55:10;99946.84;;;19.99;38.30
17438;BME280;73152;52.198;5.422;2024-01-15T04:57:39;99952.47;;;19.97;38.73
17438;BME280;73152;52.198;5.422;2024-01-15T05:00:12;99942.50;;;19.98;38.83
17438;BME280;73152;52.198;5.422;2024-01-15T05:02:41;99945.19;;;19.98;38.75
17438;BME280;73152;52.198;5.422;2024-01-15T05:05:10;99949.31;;;20.00;38.03
17438;BME280;73152;52.198;5.422;2024-01-15T05:07:39;99944.41;;;19.97;38.56
17438;BME280;73152;52.198;5.422;2024-01-15T05:10:08;99943.16;;;20.00;38.38
17438;BME280;73152;52.198;5.422;2024-01-15T05:12:37;99931.97;;;19.96;38.86
17438;BME280;73152;52.198;5.422;2024-01-15T05:15:07;99939.81;;;19.98;38.73
17438;BME280;73152;52.198;5.422;2024-01-15T05:17:38;99946.25;;;19.97;39.07
17438;BME280;73152;52.198;5.422;2024-01-15T05:20:09;99940.88;;;19.97;38.91
17438;BME280;73152;52.198;5.422;2024-01-15T05:22:38;99939.81;;;19.98;38.79
17438;BME280;73152;52.198;5.422;2024-01-15T05:25:07;99948.94;;;19.97;38.78
17438;BME280;73152;52.198;5.422;2024-01-15T05:27:36;99943.56;;;19.97;39.14
17438;BME280;73152;52.198;5.422;2024-01-15T05:30:06;99947.09;;;19.97;38.84
17438;BME280;73152;52.198;5.422;2024-01-15T05:32:37;99943.56;;;19.97;39.01
17438;BME280;73152;52.198;5.422;2024-01-15T05:35:07;99955.16;;;19.97;38.96
17438;BME280;73152;52.198;5.422;2024-01-15T05:37:36;99954.94;;;19.99;37.98
17438;BME280;73152;52.198;5.422;2024-01-15T05:40:06;99954.69;;;20.00;37.89
17438;BME280;73152;52.198;5.422;2024-01-15T05:42:35;99961.13;;;19.99;38.43
17438;BME280;73152;52.198;5.422;2024-01-15T05:45:05;99959.69;;;19.97;38.31
17438;BME280;73152;52.198;5.422;2024-01-15T05:47:35;99966.91;;;20.03;36.48
17438;BME280;73152;52.198;5.422;2024-01-15T05:50:07;99966.94;;;19.96;36.89
17438;BME280;73152;52.198;5.422;2024-01-15T05:52:36;99968.63;;;19.91;37.35
17438;BME280;73152;52.198;5.422;2024-01-15T05:55:06;99971.31;;;19.91;37.34
17438;BME280;73152;52.198;5.422;2024-01-15T05:57:36;99964.25;;;19.90;36.85
17438;BME280;73152;52.198;5.422;2024-01-15T06:00:07;99980.19;;;19.85;36.38
17438;BME280;73152;52.198;5.422;2024-01-15T06:02:37;99978.78;;;19.76;37.34
17438;BME280;73152;52.198;5.422;2024-01-15T06:05:09;99964.50;;;19.69;37.56
17438;BME280;73152;52.198;5.422;2024-01-15T06:07:38;99967.19;;;19.69;38.37
17438;BME280;73152;52.198;5.422;2024-01-15T06:10:08;99961.00;;;19.68;38.74
17438;BME280;73152;52.198;5.422;2024-01-15T06:12:37;99965.13;;;19.71;38.90
17438;BME280;73152;52.198;5.422;2024-01-15T06:15:06;99956.88;;;19.72;39.21
17438;BME280;73152;52.198;5.422;2024-01-15T06:17:35;99962.63;;;19.76;38.92
17438;BME280;73152;52.198;5.422;2024-01-15T06:20:06;99954.34;;;19.77;39.06
17438;BME280;73152;52.198;5.422;2024-01-15T06:22:38;99951.47;;;19.79;39.19
17438;BME280;73152;52.198;5.422;2024-01-15T06:25:08;99941.97;;;19.76;39.19
17438;BME280;73152;52.198;5.422;2024-01-15T06:27:37;99937.81;;;19.80;39.27
17438;BME280;73152;52.198;5.422;2024-01-15T06:30:07;99944.03;;;19.81;39.44
17438;BME280;73152;52.198;5.422;2024-01-15T06:32:36;99940.28;;;19.82;39.45
17438;BME280;73152;52.198;5.422;2024-01-15T06:35:07;99938.41;;;19.82;39.07
17438;BME280;73152;52.198;5.422;2024-01-15T06:37:40;99938.22;;;19.84;39.38
17438;BME280;73152;52.198;5.422;2024-01-15T06:40:09;99929.13;;;19.85;39.14
17438;BME280;73152;52.198;5.422;2024-01-15T06:42:38;99918.34;;;19.85;39.29
17438;BME280;73152;52.198;5.422;2024-01-15T06:45:08;99930.56;;;19.87;39.12
17438;BME280;73152;52.198;5.422;2024-01-15T06:47:37;99936.53;;;19.89;38.63
17438;BME280;73152;52.198;5.422;2024-01-15T06:50:08;99929.72;;;19.87;39.12
17438;BME280;73152;52.198;5.422;2024-01-15T06:52:40;99931.56;;;19.86;39.35
17438;BME280;73152;52.198;5.422;2024-01-15T06:55:09;99932.41;;;19.87;38.97
17438;BME280;73152;52.198;5.422;2024-01-15T06:57:37;99938.84;;;19.86;39.21
17438;BME280;73152;52.198;5.422;2024-01-15T07:00:08;99936.16;;;19.86;39.15
17438;BME280;73152;52.198;5.422;2024-01-15T07:02:37;99933.25;;;19.87;39.13
17438;BME280;73152;52.198;5.422;2024-01-15T07:05:07;99932.41;;;19.87;39.31
17438;BME280;73152;52.198;5.422;2024-01-15T07:07:39;99937.78;;;19.87;39.02
17438;BME280;73152;52.198;5.422;2024-01-15T07:10:08;99938.84;;;19.86;38.99
17438;BME280;73152;52.198;5.422;2024-01-15T07:12:37;99945.03;;;19.86;39.22
17438;BME280;73152;52.198;5.422;2024-01-15T07:15:07;99958.88;;;19.90;38.12
17438;BME280;73152;52.198;5.422;2024-01-15T07:17:36;99956.59;;;19.93;37.24
17438;BME280;73152;52.198;5.422;2024-01-15T07:20:07;99957.41;;;19.94;36.80
17438;BME280;73152;52.198;5.422;2024-01-15T07:22:39;99961.78;;;19.82;36.84
17438;BME280;73152;52.198;5.422;2024-01-15T07:25:08;99933.69;;;19.71;38.16
17438;BME280;73152;52.198;5.422;2024-01-15T07:27:38;99928.31;;;19.71;38.62
17438;BME280;73152;52.198;5.422;2024-01-15T07:30:11;99944.84;;;19.75;37.79
17438;BME280;73152;52.198;5.422;2024-01-15T07:32:40;99938.44;;;19.76;38.10
17438;BME280;73152;52.198;5.422;2024-01-15T07:35:09;99951.88;;;19.76;38.39
17438;BME280;73152;52.198;5.422;2024-01-15T07:37:41;99946.28;;;19.77;38.06
17438;BME280;73152;52.198;5.422;2024-01-15T07:40:11;99947.13;;;19.78;37.57
17438;BME280;73152;52.198;5.422;2024-01-15T07:42:39;99951.03;;;19.82;37.10
17438;BME280;73152;52.198;5.422;2024-01-15T07:45:10;99962.63;;;19.76;36.62
17438;BME280;73152;52.198;5.422;2024-01-15T07:47:39;99967.81;;;19.71;37.28
17438;BME280;73152;52.198;5.422;2024-01-15T07:50:08;99955.84;;;19.60;38.02
17438;BME280;73152;52.198;5.422;2024-01-15T07:52:37;99962.88;;;19.55;36.40
17438;BME280;73152;52.198;5.422;2024-01-15T07:55:08;99954.63;;;19.43;36.85
17438;BME280;73152;52.198;5.422;2024-01-15T07:57:37;99946.56;;;19.36;37.04
17438;BME280;73152;52.198;5.422;2024-01-15T08:00:07;99940.38;;;19.36;37.79
17438;BME280;73152;52.198;5.422;2024-01-15T08:02:36;99933.75;;;19.38;38.53
17438;BME280;73152;52.198;5.422;2024-01-15T08:05:05;99935.81;;;19.43;38.37
17438;BME280;73152;52.198;5.422;2024-01-15T08:07:34;99934.16;;;19.49;38.29
17438;BME280;73152;52.198;5.422;2024-01-15T08:10:04;99945.31;;;19.52;38.51
17438;BME280;73152;52.198;5.422;2024-01-15T08:12:35;99927.94;;;19.55;38.74
17438;BME280;73152;52.198;5.422;2024-01-15T08:15:05;99927.91;;;19.61;37.91
17438;BME280;73152;52.198;5.422;2024-01-15T08:17:32;99930.81;;;19.60;38.45
17438;BME280;73152;52.198;5.422;2024-01-15T08:20:00;99936.22;;;19.60;38.35
17438;BME280;73152;52.198;5.422;2024-01-15T08:22:30;99938.47;;;19.63;38.44
17438;BME280;73152;52.198;5.422;2024-01-15T08:24:59;99956.84;;;19.66;38.00
17438;BME280;73152;52.198;5.422;2024-01-15T08:27:29;99963.06;;;19.66;38.50
17438;BME280;73152;52.198;5.422;2024-01-15T08:30:00;99962.22;;;19.66;38.44
17438;BME280;73152;52.198;5.422;2024-01-15T08:32:30;99968.44;;;19.73;36.70
17438;BME280;73152;52.198;5.422;2024-01-15T08:34:58;99930.00;;;19.53;37.98
17438;BME280;73152;52.198;5.422;2024-01-15T08:37:29;99947.34;;;19.63;38.16
17438;BME280;73152;52.198;5.422;2024-01-15T08:39:58;99949.84;;;19.65;38.01
17438;BME280;73152;52.198;5.422;2024-01-15T08:42:27;99943.63;;;19.64;38.61
17438;BME280;73152;52.198;5.422;2024-01-15T08:44:56;99937.03;;;19.67;38.47
17438;BME280;73152;52.198;5.422;2024-01-15T08:47:27;99931.66;;;19.67;38.65
17438;BME280;73152;52.198;5.422;2024-01-15T08:49:56;99936.81;;;19.68;38.88
17438;BME280;73152;52.198;5.422;2024-01-15T08:52:25;99939.50;;;19.68;39.02
17438;BME280;73152;52.198;5.422;2024-01-15T08:54:56;99944.44;;;19.71;38.70
17438;BME280;73152;52.198;5.422;2024-01-15T08:57:26;99951.88;;;19.76;38.58
17438;BME280;73152;52.198;5.422;2024-01-15T08:59:55;99943.59;;;19.77;38.52
17438;BME280;73152;52.198;5.422;2024-01-15T09:02:27;99962.63;;;19.82;38.36
17438;BME280;73152;52.198;5.422;2024-01-15T09:04:55;99959.31;;;19.80;38.30
17438;BME280;73152;52.198;5.422;2024-01-15T09:07:25;99956.41;;;19.88;38.18
17438;BME280;73152;52.198;5.422;2024-01-15T09:09:53;99959.91;;;19.89;38.57
17438;BME280;73152;52.198;5.422;2024-01-15T09:12:22;99961.97;;;19.93;37.86
17438;BME280;73152;52.198;5.422;2024-01-15T09:14:51;99960.09;;;19.94;38.38
17438;BME280;73152;52.198;5.422;2024-01-15T09:17:20;99948.94;;;19.97;37.91
17438;BME280;73152;52.198;5.422;2024-01-15T09:19:52;99943.56;;;19.97;37.95
17438;BME280;73152;52.198;5.422;2024-01-15T09:22:20;99947.09;;;19.97;38.34
17438;BME280;73152;52.198;5.422;2024-01-15T09:24:49;99953.72;;;19.95;38.30
17438;BME280;73152;52.198;5.422;2024-01-15T09:27:18;99946.66;;;19.94;38.13
17438;BME280;73152;52.198;5.422;2024-01-15T09:29:47;99943.97;;;19.94;38.58
17438;BME280;73152;52.198;5.422;2024-01-15T09:32:16;99945.63;;;19.95;38.32
17438;BME280;73152;52.198;5.422;2024-01-15T09:34:46;99948.09;;;19.96;38.08
17438;BME280;73152;52.198;5.422;2024-01-15T09:37:17;99951.03;;;19.95;38.13
17438;BME280;73152;52.198;5.422;2024-01-15T09:39:46;99948.09;;;19.96;38.19
17438;BME280;73152;52.198;5.422;2024-01-15T09:42:16;99937.13;;;19.98;38.13
17438;BME280;73152;52.198;5.422;2024-01-15T09:44:47;99936.09;;;19.99;37.99
17438;BME280;73152;52.198;5.422;2024-01-15T09:47:18;99941.06;;;20.02;37.98
17438;BME280;73152;52.198;5.422;2024-01-15T09:49:47;99948.91;;;20.03;37.85
17438;BME280;73152;52.198;5.422;2024-01-15T09:52:19;99962.13;;;20.05;38.37
17438;BME280;73152;52.198;5.422;2024-01-15T09:54:49;99959.44;;;20.05;38.41
17438;BME280;73152;52.198;5.422;2024-01-15T09:57:19;99962.97;;;20.05;37.86
17438;BME280;73152;52.198;5.422;2024-01-15T09:59:50;99959.66;;;20.03;38.14
17438;BME280;73152;52.198;5.422;2024-01-15T10:02:20;99967.09;;;20.08;37.76
17438;BME280;73152;52.198;5.422;2024-01-15T10:04:49;99962.56;;;20.08;38.20
17438;BME280;73152;52.198;5.422;2024-01-15T10:07:21;99968.78;;;20.09;38.02
17438;BME280;73152;52.198;5.422;2024-01-15T10:09:51;99958.00;;;20.09;38.04
17438;BME280;73152;52.198;5.422;2024-01-15T10:12:21;99966.69;;;20.11;38.02
17438;BME280;73152;52.198;5.422;2024-01-15T10:14:53;99957.56;;;20.12;38.32
17438;BME280;73152;52.198;5.422;2024-01-15T10:17:21;99964.19;;;20.16;38.17
17438;BME280;73152;52.198;5.422;2024-01-15T10:19:50;99968.75;;;20.22;37.13
17438;BME280;73152;52.198;5.422;2024-01-15T10:22:22;99977.00;;;20.21;37.68
17438;BME280;73152;52.198;5.422;2024-01-15T10:24:51;99980.34;;;20.23;37.32
17438;BME280;73152;52.198;5.422;2024-01-15T10:27:20;99977.81;;;20.21;37.39
17438;BME280;73152;52.198;5.422;2024-01-15T10:29:49;99959.19;;;20.20;37.04
17438;BME280;73152;52.198;5.422;2024-01-15T10:32:19;99969.97;;;20.26;36.04
17438;BME280;73152;52.198;5.422;2024-01-15T10:34:53;99969.38;;;20.11;37.04
17438;BME280;73152;52.198;5.422;2024-01-15T10:37:24;99970.41;;;20.10;37.41
17438;BME280;73152;52.198;5.422;2024-01-15T10:39:53;99970.22;;;20.12;37.14
17438;BME280;73152;52.198;5.422;2024-01-15T10:42:23;99963.81;;;20.06;38.01
17438;BME280;73152;52.198;5.422;2024-01-15T10:44:52;99974.16;;;20.09;38.25
17438;BME280;73152;52.198;5.422;2024-01-15T10:47:21;99972.91;;;20.12;37.65
17438;BME280;73152;52.198;5.422;2024-01-15T10:49:52;99966.69;;;20.11;37.43
17438;BME280;73152;52.198;5.422;2024-01-15T10:52:24;99975.59;;;20.12;38.14
17438;BME280;73152;52.198;5.422;2024-01-15T10:54:55;99983.22;;;20.15;37.82
17438;BME280;73152;52.198;5.422;2024-01-15T10:57:27;99983.22;;;20.15;37.73
17438;BME280;73152;52.198;5.422;2024-01-15T10:59:57;99989.25;;;20.23;37.11
17438;BME280;73152;52.198;5.422;2024-01-15T11:02:26;99997.47;;;20.28;36.58
17438;BME280;73152;52.198;5.422;2024-01-15T11:04:55;99993.53;;;20.31;35.41
17438;BME280;73152;52.198;5.422;2024-01-15T11:07:30;100010.94;;;20.15;35.59
17438;BME280;73152;52.198;5.422;2024-01-15T11:09:59;100002.13;;;19.95;36.26
17438;BME280;73152;52.198;5.422;2024-01-15T11:12:29;99999.00;;;19.91;36.28
17438;BME280;73152;52.198;5.422;2024-01-15T11:15:03;99999.44;;;19.82;36.06
17438;BME280;73152;52.198;5.422;2024-01-15T11:17:59;100001.09;;;19.83;35.94
17438;BME280;73152;52.198;5.422;2024-01-15T11:20:31;100009.38;;;19.75;36.66
17438;BME280;73152;52.198;5.422;2024-01-15T11:23:03;100010.63;;;19.79;35.96
17438;BME280;73152;52.198;5.422;2024-01-15T11:25:35;100003.59;;;19.71;36.46
17438;BME280;73152;52.198;5.422;2024-01-15T11:28:06;100001.94;;;19.70;35.83
17438;BME280;73152;52.198;5.422;2024-01-15T11:30:34;100002.56;;;19.72;36.62
17438;BME280;73152;52.198;5.422;2024-01-15T11:33:04;100002.75;;;19.71;36.99
17438;BME280;73152;52.198;5.422;2024-01-15T11:35:48;99997.38;;;19.84;36.03
17438;BME280;73152;52.198;5.422;2024-01-15T11:38:29;99997.59;;;19.76;35.88
17438;BME280;73152;52.198;5.422;2024-01-15T11:40:59;99999.06;;;19.72;36.79
17438;BME280;73152;52.198;5.422;2024-01-15T11:43:28;99996.75;;;19.75;36.51
17438;BME280;73152;52.198;5.422;2024-01-15T11:46:02;100004.63;;;19.83;36.34
17438;BME280;73152;52.198;5.422;2024-01-15T11:48:43;100001.09;;;19.83;36.17
17438;BME280;73152;52.198;5.422;2024-01-15T11:51:15;100013.09;;;19.80;35.98
17438;BME280;73152;52.198;5.422;2024-01-15T11:53:55;100017.44;;;19.75;36.83
17438;BME280;73152;52.198;5.422;2024-01-15T11:56:30;100011.41;;;19.79;37.16
17438;BME280;73152;52.198;5.422;2024-01-15T11:58:59;100015.56;;;19.82;36.80
17438;BME280;73152;52.198;5.422;2024-01-15T12:01:28;100013.28;;;19.92;36.54
17438;BME280;73152;52.198;5.422;2024-01-15T12:03:58;100025.47;;;19.94;35.74
17438;BME280;73152;52.198;5.422;2024-01-15T12:06:27;100048.66;;;19.89;35.86
17438;BME280;73152;52.198;5.422;2024-01-15T12:09:08;100048.47;;;19.71;35.68
17438;BME280;73152;52.198;5.422;2024-01-15T12:11:39;100050.31;;;19.57;35.21
17438;BME280;73152;52.198;5.422;2024-01-15T12:14:11;100043.28;;;19.36;35.83
17438;BME280;73152;52.198;5.422;2024-01-15T12:16:40;100048.81;;;19.28;35.91
17438;BME280;73152;52.198;5.422;2024-01-15T12:19:09;100050.88;;;19.26;37.20
17438;BME280;73152;52.198;5.422;2024-01-15T12:21:39;100051.50;;;19.28;36.50
17438;BME280;73152;52.198;5.422;2024-01-15T12:24:11;100045.75;;;19.38;36.46
17438;BME280;73152;52.198;5.422;2024-01-15T12:26:40;100048.44;;;19.45;36.40
17438;BME280;73152;52.198;5.422;2024-01-15T12:29:08;100050.13;;;19.46;36.84
17438;BME280;73152;52.198;5.422;2024-01-15T12:31:38;100056.53;;;19.58;35.84
17438;BME280;73152;52.198;5.422;2024-01-15T12:34:07;100067.47;;;19.56;36.19
17438;BME280;73152;52.198;5.422;2024-01-15T12:36:36;100072.66;;;19.58;36.49
17438;BME280;73152;52.198;5.422;2024-01-15T12:39:05;100051.56;;;19.61;35.33
17438;BME280;73152;52.198;5.422;2024-01-15T12:41:38;100048.03;;;19.54;35.57
17438;BME280;73152;52.198;5.422;2024-01-15T12:44:07;100048.25;;;19.53;36.00
17438;BME280;73152;52.198;5.422;2024-01-15T12:46:35;100049.09;;;19.47;36.20
17438;BME280;73152;52.198;5.422;2024-01-15T12:49:04;100043.28;;;19.43;35.39
17438;BME280;73152;52.198;5.422;2024-01-15T12:51:35;100048.81;;;19.28;36.96
17438;BME280;73152;52.198;5.422;2024-01-15T12:54:04;100048.66;;;19.43;36.99
17438;BME280;73152;52.198;5.422;2024-01-15T12:56:36;100042.88;;;19.46;36.07
17438;BME280;73152;52.198;5.422;2024-01-15T12:59:04;100034.81;;;19.39;36.87
17438;BME280;73152;52.198;5.422;2024-01-15T13:01:33;100049.50;;;19.50;37.40
17438;BME280;73152;52.198;5.422;2024-01-15T13:04:03;100053.63;;;19.53;37.81
17438;BME280;73152;52.198;5.422;2024-01-15T13:06:34;100068.13;;;19.58;37.46
17438;BME280;73152;52.198;5.422;2024-01-15T13:09:03;100065.63;;;19.63;37.75